sensor_id;sensor_type;location;lat;lon;timestamp;temperature;humidity
15705;DHT22;7952;48.396;12.806;2022-10-01T00:01:17;11.60;58.60
15705;DHT22;7952;48.396;12.806;2022-10-01T00:03:45;11.70;58.60
15705;DHT22;7952;48.396;12.806;2022-10-01T00:06:18;11.70;58.60
15705;DHT22;7952;48.396;12.806;2022-10-01T00:08:46;11.60;58.50
15705;DHT22;7952;48.396;12.806;2022-10-01T00:11:19;11.60;58.50
15705;DHT22;7952;48.396;12.806;2022-10-01T00:13:46;11.60;58.60
15705;DHT22;7952;48.396;12.806;2022-10-01T00:16:17;11.60;58.60
15705;DHT22;7952;48.396;12.806;2022-10-01T00:18:47;11.60;58.60
15705;DHT22;7952;48.396;12.806;2022-10-01T00:21:15;11.50;58.60
15705;DHT22;7952;48.396;12.806;2022-10-01T00:23:41;11.60;58.70
15705;DHT22;7952;48.396;12.806;2022-10-01T00:26:12;11.60;58.80
15705;DHT22;7952;48.396;12.806;2022-10-01T00:28:40;11.60;58.70
15705;DHT22;7952;48.396;12.806;2022-10-01T00:31:12;11.60;58.70
15705;DHT22;7952;48.396;12.806;2022-10-01T00:33:38;11.70;58.80
15705;DHT22;7952;48.396;12.806;2022-10-01T00:36:06;11.70;58.80
15705;DHT22;7952;48.396;12.806;2022-10-01T00:38:33;11.70;58.70
15705;DHT22;7952;48.396;12.806;2022-10-01T00:40:59;11.80;58.80
15705;DHT22;7952;48.396;12.806;2022-10-01T00:43:27;11.80;58.70
15705;DHT22;7952;48.396;12.806;2022-10-01T00:45:57;11.80;58.50
15705;DHT22;7952;48.396;12.806;2022-10-01T00:48:26;11.80;58.50
15705;DHT22;7952;48.396;12.806;2022-10-01T00:50:54;11.80;58.50
15705;DHT22;7952;48.396;12.806;2022-10-01T00:53:20;11.80;58.50
15705;DHT22;7952;48.396;12.806;2022-10-01T00:55:52;11.80;58.50
15705;DHT22;7952;48.396;12.806;2022-10-01T00:58:21;11.80;58.50
15705;DHT22;7952;48.396;12.806;2022-10-01T01:00:48;11.80;58.60
15705;DHT22;7952;48.396;12.806;2022-10-01T01:03:15;11.80;58.60
15705;DHT22;7952;48.396;12.806;2022-10-01T01:05:41;11.70;58.50
15705;DHT22;7952;48.396;12.806;2022-10-01T01:08:07;11.70;58.60
15705;DHT22;7952;48.396;12.806;2022-10-01T01:16:18;11.80;58.60
15705;DHT22;7952;48.396;12.806;2022-10-01T01:18:51;11.80;58.60
15705;DHT22;7952;48.396;12.806;2022-10-01T01:21:28;11.90;58.60
15705;DHT22;7952;48.396;12.806;2022-10-01T01:25:07;11.90;58.60
15705;DHT22;7952;48.396;12.806;2022-10-01T01:29:49;11.90;59.10
15705;DHT22;7952;48.396;12.806;2022-10-01T01:32:24;11.90;58.50
15705;DHT22;7952;48.396;12.806;2022-10-01T01:34:52;12.00;58.60
15705;DHT22;7952;48.396;12.806;2022-10-01T01:37:23;12.00;58.60
15705;DHT22;7952;48.396;12.806;2022-10-01T01:39:52;12.00;58.50
15705;DHT22;7952;48.396;12.806;2022-10-01T01:42:29;12.00;58.50
15705;DHT22;7952;48.396;12.806;2022-10-01T01:44:59;12.00;58.50
15705;DHT22;7952;48.396;12.806;2022-10-01T01:47:27;12.00;58.40
15705;DHT22;7952;48.396;12.806;2022-10-01T01:49:54;12.00;58.40
15705;DHT22;7952;48.396;12.806;2022-10-01T01:52:20;12.00;58.30
15705;DHT22;7952;48.396;12.806;2022-10-01T01:54:47;12.00;58.30
15705;DHT22;7952;48.396;12.806;2022-10-01T01:57:17;11.90;58.30
15705;DHT22;7952;48.396;12.806;2022-10-01T01:59:44;11.90;58.40
15705;DHT22;7952;48.396;12.806;2022-10-01T02:02:14;11.90;58.50
15705;DHT22;7952;48.396;12.806;2022-10-01T02:04:45;11.90;58.50
15705;DHT22;7952;48.396;12.806;2022-10-01T02:12:54;11.80;58.60
15705;DHT22;7952;48.396;12.806;2022-10-01T02:15:34;11.80;58.70
15705;DHT22;7952;48.396;12.806;2022-10-01T02:23:53;11.90;58.70
15705;DHT22;7952;48.396;12.806;2022-10-01T02:26:23;11.90;58.70
15705;DHT22;7952;48.396;12.806;2022-10-01T02:28:53;12.00;58.70
15705;DHT22;7952;48.396;12.806;2022-10-01T02:31:21;12.00;58.60
15705;DHT22;7952;48.396;12.806;2022-10-01T02:33:50;12.00;58.60
15705;DHT22;7952;48.396;12.806;2022-10-01T02:36:19;12.00;58.50
15705;DHT22;7952;48.396;12.806;2022-10-01T02:38:47;12.00;58.50
15705;DHT22;7952;48.396;12.806;2022-10-01T02:41:18;12.00;58.50
15705;DHT22;7952;48.396;12.806;2022-10-01T02:43:50;12.10;58.60
15705;DHT22;7952;48.396;12.806;2022-10-01T02:46:24;12.10;58.60
15705;DHT22;7952;48.396;12.806;2022-10-01T02:48:53;12.10;58.60
15705;DHT22;7952;48.396;12.806;2022-10-01T02:54:02;12.10;58.50
15705;DHT22;7952;48.396;12.806;2022-10-01T02:56:29;12.20;58.60
15705;DHT22;7952;48.396;12.806;2022-10-01T02:59:21;12.20;58.60
15705;DHT22;7952;48.396;12.806;2022-10-01T03:01:47;12.10;58.40
15705;DHT22;7952;48.396;12.806;2022-10-01T03:04:12;12.10;58.40
15705;DHT22;7952;48.396;12.806;2022-10-01T03:06:40;12.10;58.40
15705;DHT22;7952;48.396;12.806;2022-10-01T03:09:06;12.10;58.50
15705;DHT22;7952;48.396;12.806;2022-10-01T03:11:33;12.00;58.50
15705;DHT22;7952;48.396;12.806;2022-10-01T03:13:59;12.00;58.50
15705;DHT22;7952;48.396;12.806;2022-10-01T03:16:25;12.00;58.60
15705;DHT22;7952;48.396;12.806;2022-10-01T03:18:51;12.00;58.60
15705;DHT22;7952;48.396;12.806;2022-10-01T03:21:17;12.10;58.70
15705;DHT22;7952;48.396;12.806;2022-10-01T03:23:43;12.10;58.70
15705;DHT22;7952;48.396;12.806;2022-10-01T03:26:09;12.10;58.70
15705;DHT22;7952;48.396;12.806;2022-10-01T03:28:34;12.10;58.70
15705;DHT22;7952;48.396;12.806;2022-10-01T03:31:07;12.20;58.70
15705;DHT22;7952;48.396;12.806;2022-10-01T03:33:34;12.20;58.70
15705;DHT22;7952;48.396;12.806;2022-10-01T03:36:01;12.20;58.60
15705;DHT22;7952;48.396;12.806;2022-10-01T03:38:27;12.20;58.50
15705;DHT22;7952;48.396;12.806;2022-10-01T03:40:52;12.20;58.50
15705;DHT22;7952;48.396;12.806;2022-10-01T03:43:19;12.20;58.40
15705;DHT22;7952;48.396;12.806;2022-10-01T03:45:45;12.20;58.50
15705;DHT22;7952;48.396;12.806;2022-10-01T03:48:11;12.20;58.50
15705;DHT22;7952;48.396;12.806;2022-10-01T03:50:37;12.10;58.50
15705;DHT22;7952;48.396;12.806;2022-10-01T03:53:02;12.10;58.50
15705;DHT22;7952;48.396;12.806;2022-10-01T03:55:28;12.10;58.60
15705;DHT22;7952;48.396;12.806;2022-10-01T03:57:54;12.00;58.60
15705;DHT22;7952;48.396;12.806;2022-10-01T04:00:22;12.00;59.20
15705;DHT22;7952;48.396;12.806;2022-10-01T04:02:48;12.00;58.70
15705;DHT22;7952;48.396;12.806;2022-10-01T04:05:13;12.00;58.80
15705;DHT22;7952;48.396;12.806;2022-10-01T04:07:40;11.90;58.70
15705;DHT22;7952;48.396;12.806;2022-10-01T04:10:06;11.90;58.80
15705;DHT22;7952;48.396;12.806;2022-10-01T04:12:32;11.80;58.70
15705;DHT22;7952;48.396;12.806;2022-10-01T04:14:58;11.70;58.70
15705;DHT22;7952;48.396;12.806;2022-10-01T04:17:24;11.70;58.80
15705;DHT22;7952;48.396;12.806;2022-10-01T04:19:50;11.70;58.90
15705;DHT22;7952;48.396;12.806;2022-10-01T04:22:15;11.60;58.80
15705;DHT22;7952;48.396;12.806;2022-10-01T04:24:41;11.60;58.90
15705;DHT22;7952;48.396;12.806;2022-10-01T04:27:07;11.50;58.90
15705;DHT22;7952;48.396;12.806;2022-10-01T04:29:33;11.50;59.00
15705;DHT22;7952;48.396;12.806;2022-10-01T04:32:01;11.50;59.00
15705;DHT22;7952;48.396;12.806;2022-10-01T04:41:38;11.50;59.20
15705;DHT22;7952;48.396;12.806;2022-10-01T04:44:35;11.50;59.20
15705;DHT22;7952;48.396;12.806;2022-10-01T04:57:36;11.60;59.20
15705;DHT22;7952;48.396;12.806;2022-10-01T05:00:05;11.60;59.20
15705;DHT22;7952;48.396;12.806;2022-10-01T05:02:31;11.60;59.20
15705;DHT22;7952;48.396;12.806;2022-10-01T05:05:00;11.60;59.10
15705;DHT22;7952;48.396;12.806;2022-10-01T05:07:26;11.60;59.10
15705;DHT22;7952;48.396;12.806;2022-10-01T05:09:59;11.60;59.10
15705;DHT22;7952;48.396;12.806;2022-10-01T05:12:25;11.60;59.10
15705;DHT22;7952;48.396;12.806;2022-10-01T05:14:55;11.60;59.10
15705;DHT22;7952;48.396;12.806;2022-10-01T05:17:21;11.60;59.10
15705;DHT22;7952;48.396;12.806;2022-10-01T05:19:47;11.60;59.10
15705;DHT22;7952;48.396;12.806;2022-10-01T05:22:14;11.60;59.10
15705;DHT22;7952;48.396;12.806;2022-10-01T05:24:41;11.60;59.10
15705;DHT22;7952;48.396;12.806;2022-10-01T05:27:29;11.60;59.10
15705;DHT22;7952;48.396;12.806;2022-10-01T05:29:56;11.70;59.10
15705;DHT22;7952;48.396;12.806;2022-10-01T05:32:22;11.70;59.20
15705;DHT22;7952;48.396;12.806;2022-10-01T05:34:47;11.80;59.30
15705;DHT22;7952;48.396;12.806;2022-10-01T05:37:29;11.90;59.60
15705;DHT22;7952;48.396;12.806;2022-10-01T05:39:54;12.10;60.00
15705;DHT22;7952;48.396;12.806;2022-10-01T05:42:20;12.40;60.60
15705;DHT22;7952;48.396;12.806;2022-10-01T05:44:46;12.80;60.80
15705;DHT22;7952;48.396;12.806;2022-10-01T06:04:29;15.90;59.70
15705;DHT22;7952;48.396;12.806;2022-10-01T07:25:09;21.40;58.20
15705;DHT22;7952;48.396;12.806;2022-10-01T07:59:10;23.00;57.40
15705;DHT22;7952;48.396;12.806;2022-10-01T10:01:21;19.70;57.00
15705;DHT22;7952;48.396;12.806;2022-10-01T10:04:22;19.60;57.00
15705;DHT22;7952;48.396;12.806;2022-10-01T13:31:29;15.10;57.80
15705;DHT22;7952;48.396;12.806;2022-10-01T14:18:58;14.80;58.10
15705;DHT22;7952;48.396;12.806;2022-10-01T15:53:16;15.00;58.20
15705;DHT22;7952;48.396;12.806;2022-10-01T17:34:02;14.60;58.90
